MET6117 - Baltimore to London Heathrow

Boeing 747-400
G-FLEL - Fly UK
7 hrs 15 mins
3153 nm
Fly UK Codeshare - SU | W | F

Departure

Departing from
Baltimore (BWI)
Departure gate
Scheduled Departure
GMT 0255
Local 2155
METAR KBWI 161154Z 07003KT 10SM OVC036 01/M03 A3046 RMK AO2 SLP316 T00111033 10011 20000 53004
TAF KBWI 161129Z 1612/1718 00000KT P6SM OVC030 FM162300 VRB03KT P6SM OVC015 FM171200 VRB03KT 2SM -SHRA OVC015
  • No charts available

Arrival

Arriving at
London Heathrow (LHR)
Arrival gate
Terminal 3
Scheduled Arrival
GMT 1010
Local 1010
METAR EGLL 161220Z 11005KT 6000 -RA FEW005 SCT007 BKN015 05/05 Q1028 TEMPO BKN014
TAF TAF EGLL 161054Z 1612/1718 12003KT 7000 -RA SCT009 BKN016 TEMPO 1612/1618 4800 -RADZ BKN012 BECMG 1616/1619 9999 NSW PROB30 TEMPO 1703/1709 5000 BR BKN004

Route Map

Planning Resources

SWANN3 OOD J42 RBV JFK PUT WITCH ALLEX N79B YQX NATT MALOT NATT GISTI SLANY UL9 STU UP2 OKESI Y3 BEDEK OCK2F
SWANN3 SWANN V268 BROSS J42 RBV JFK PUT BOS BRADD N53B YYT NATU LIMRI NATU XETBO EVRIN UL607 NUMPO UP2 OKESI Y3 BEDEK OCK2F
SWANN3 OOD RBV BOS TOPPS DOTTY CRONO 52N50W 54N40W 55N30W 55N20W RESNO NETKI WAL BNN1B
SWANN3 OOD J42 RBV ACK TUSKY N77B YQX NATX LIMRI NATX XETBO EVRIN UL607 NUMPO UP2 OKESI Y3 BEDEK OCK2F
SWANN3 OOD J42 RBV J222 JFK PUT TOPPS N125A YAY NATT NETKI LIFFY UL975 WAL NUGRA BNN1B
Route:
OFP Layout:
Units:
Detailed Navlog:
ETOPS Planning:
Plan Stepclimbs:
Runway Analysis:
Include NOTAMS:
FIR NOTAMS:
Flight Maps:

Return Flights

MET100
Airbus A330-343
1240 GMT
MET6116 (Operated by Fly UK)
Boeing 747-400
1615 GMT

Popularity

Hub Current Bids PiReps this month Total PiReps
KMCI 0 0 2
KLAX 0 0 1
KBOS 0 0 0